sensor_id;sensor_type;location;lat;lon;timestamp;pressure;altitude;pressure_sealevel;temperature;humidity
4199;BME280;2113;50.946;14.610;2023-11-19T00:01:19;97270.94;;;1.01;79.96
4199;BME280;2113;50.946;14.610;2023-11-19T00:03:47;97249.88;;;1.04;79.89
4199;BME280;2113;50.946;14.610;2023-11-19T00:06:17;97232.13;;;0.99;80.93
4199;BME280;2113;50.946;14.610;2023-11-19T00:08:45;97206.97;;;1.00;80.85
4199;BME280;2113;50.946;14.610;2023-11-19T00:11:13;97200.41;;;0.96;81.12
4199;BME280;2113;50.946;14.610;2023-11-19T00:13:42;97199.28;;;0.89;81.88
4199;BME280;2113;50.946;14.610;2023-11-19T00:16:11;97207.78;;;1.00;81.54
4199;BME280;2113;50.946;14.610;2023-11-19T00:18:40;97209.97;;;0.95;81.73
4199;BME280;2113;50.946;14.610;2023-11-19T00:21:08;97203.75;;;0.77;82.46
4199;BME280;2113;50.946;14.610;2023-11-19T00:23:37;97183.94;;;0.76;82.79
4199;BME280;2113;50.946;14.610;2023-11-19T00:26:06;97176.00;;;0.68;83.58
4199;BME280;2113;50.946;14.610;2023-11-19T00:28:36;97170.25;;;0.64;84.28
4199;BME280;2113;50.946;14.610;2023-11-19T00:31:05;97153.56;;;0.57;84.36
4199;BME280;2113;50.946;14.610;2023-11-19T00:33:34;97144.13;;;0.56;84.72
4199;BME280;2113;50.946;14.610;2023-11-19T00:36:17;97140.47;;;0.59;85.17
4199;BME280;2113;50.946;14.610;2023-11-19T00:38:45;97141.25;;;0.49;85.33
4199;BME280;2113;50.946;14.610;2023-11-19T00:41:15;97136.31;;;0.46;85.74
4199;BME280;2113;50.946;14.610;2023-11-19T00:43:43;97134.41;;;0.48;85.65
4199;BME280;2113;50.946;14.610;2023-11-19T00:46:11;97126.75;;;0.37;85.70
4199;BME280;2113;50.946;14.610;2023-11-19T00:48:40;97123.97;;;0.29;86.04
4199;BME280;2113;50.946;14.610;2023-11-19T00:51:11;97112.91;;;0.27;87.09
4199;BME280;2113;50.946;14.610;2023-11-19T00:53:40;97115.91;;;0.22;87.27
4199;BME280;2113;50.946;14.610;2023-11-19T00:56:10;97123.09;;;0.19;87.33
4199;BME280;2113;50.946;14.610;2023-11-19T00:58:39;97111.09;;;0.18;88.27
4199;BME280;2113;50.946;14.610;2023-11-19T01:01:08;97103.47;;;0.16;88.11
4199;BME280;2113;50.946;14.610;2023-11-19T01:03:36;97112.13;;;0.06;88.48
4199;BME280;2113;50.946;14.610;2023-11-19T01:06:05;97116.91;;;0.01;89.29
4199;BME280;2113;50.946;14.610;2023-11-19T01:08:33;97131.75;;;-0.02;89.38
4199;BME280;2113;50.946;14.610;2023-11-19T01:11:04;97124.09;;;-0.03;89.05
4199;BME280;2113;50.946;14.610;2023-11-19T01:13:32;97107.66;;;0.08;89.24
4199;BME280;2113;50.946;14.610;2023-11-19T01:16:05;97108.06;;;0.13;89.75
4199;BME280;2113;50.946;14.610;2023-11-19T01:23:23;97081.03;;;0.06;89.37
4199;BME280;2113;50.946;14.610;2023-11-19T01:26:17;97091.16;;;0.09;89.27
4199;BME280;2113;50.946;14.610;2023-11-19T01:28:46;97089.50;;;0.08;89.77
4199;BME280;2113;50.946;14.610;2023-11-19T01:31:19;97095.38;;;0.10;89.07
4199;BME280;2113;50.946;14.610;2023-11-19T01:33:47;97085.69;;;0.12;89.36
4199;BME280;2113;50.946;14.610;2023-11-19T01:36:15;97081.31;;;0.12;89.35
4199;BME280;2113;50.946;14.610;2023-11-19T01:38:44;97073.41;;;0.14;89.70
4199;BME280;2113;50.946;14.610;2023-11-19T01:41:12;97066.28;;;0.06;89.53
4199;BME280;2113;50.946;14.610;2023-11-19T01:43:41;97035.31;;;0.05;89.54
4199;BME280;2113;50.946;14.610;2023-11-19T01:46:10;97016.63;;;0.11;89.87
4199;BME280;2113;50.946;14.610;2023-11-19T01:48:42;97021.28;;;0.07;90.04
4199;BME280;2113;50.946;14.610;2023-11-19T01:51:12;97025.63;;;0.07;90.23
4199;BME280;2113;50.946;14.610;2023-11-19T01:53:43;97004.88;;;0.07;90.53
4199;BME280;2113;50.946;14.610;2023-11-19T01:56:14;96997.09;;;0.07;89.94
4199;BME280;2113;50.946;14.610;2023-11-19T01:58:45;96993.56;;;0.08;89.63
4199;BME280;2113;50.946;14.610;2023-11-19T02:01:14;96997.81;;;0.09;90.06
4199;BME280;2113;50.946;14.610;2023-11-19T02:03:43;97000.78;;;0.14;90.39
4199;BME280;2113;50.946;14.610;2023-11-19T02:06:11;96996.84;;;0.10;90.24
4199;BME280;2113;50.946;14.610;2023-11-19T02:08:40;96993.44;;;0.09;89.83
4199;BME280;2113;50.946;14.610;2023-11-19T02:11:08;96988.25;;;0.09;90.11
4199;BME280;2113;50.946;14.610;2023-11-19T02:13:37;96984.69;;;0.10;90.43
4199;BME280;2113;50.946;14.610;2023-11-19T02:16:07;96988.78;;;0.13;90.39
4199;BME280;2113;50.946;14.610;2023-11-19T02:18:38;96982.25;;;0.18;90.28
4199;BME280;2113;50.946;14.610;2023-11-19T02:21:06;96970.25;;;0.27;90.44
4199;BME280;2113;50.946;14.610;2023-11-19T02:23:34;96964.09;;;0.28;90.06
4199;BME280;2113;50.946;14.610;2023-11-19T02:26:09;96956.88;;;0.32;89.83
4199;BME280;2113;50.946;14.610;2023-11-19T02:28:42;96963.03;;;0.31;89.94
4199;BME280;2113;50.946;14.610;2023-11-19T02:31:11;96964.53;;;0.33;89.75
4199;BME280;2113;50.946;14.610;2023-11-19T02:33:39;96952.81;;;0.29;89.77
4199;BME280;2113;50.946;14.610;2023-11-19T02:36:08;96945.03;;;0.29;89.81
4199;BME280;2113;50.946;14.610;2023-11-19T02:38:37;96911.97;;;0.31;89.76
4199;BME280;2113;50.946;14.610;2023-11-19T02:41:06;96897.75;;;0.35;90.24
4199;BME280;2113;50.946;14.610;2023-11-19T02:43:37;96899.69;;;0.33;90.63
4199;BME280;2113;50.946;14.610;2023-11-19T02:46:07;96887.38;;;0.35;90.63
4199;BME280;2113;50.946;14.610;2023-11-19T02:48:38;96886.47;;;0.36;90.46
4199;BME280;2113;50.946;14.610;2023-11-19T02:51:31;96881.78;;;0.40;90.17
4199;BME280;2113;50.946;14.610;2023-11-19T02:54:01;96880.56;;;0.44;90.28
4199;BME280;2113;50.946;14.610;2023-11-19T02:56:30;96872.78;;;0.44;91.14
4199;BME280;2113;50.946;14.610;2023-11-19T02:59:02;96872.38;;;0.48;90.88
4199;BME280;2113;50.946;14.610;2023-11-19T03:01:38;96868.00;;;0.49;90.94
4199;BME280;2113;50.946;14.610;2023-11-19T03:04:11;96855.97;;;0.58;90.35
4199;BME280;2113;50.946;14.610;2023-11-19T03:06:44;96855.03;;;0.59;90.49
4199;BME280;2113;50.946;14.610;2023-11-19T03:09:12;96842.03;;;0.59;90.74
4199;BME280;2113;50.946;14.610;2023-11-19T03:11:40;96837.53;;;0.61;90.42
4199;BME280;2113;50.946;14.610;2023-11-19T03:14:09;96835.59;;;0.63;90.25
4199;BME280;2113;50.946;14.610;2023-11-19T03:16:38;96813.47;;;0.68;90.13
4199;BME280;2113;50.946;14.610;2023-11-19T03:19:06;96796.81;;;0.71;90.28
4199;BME280;2113;50.946;14.610;2023-11-19T03:21:34;96785.59;;;0.70;89.94
4199;BME280;2113;50.946;14.610;2023-11-19T03:24:04;96773.72;;;0.68;89.92
4199;BME280;2113;50.946;14.610;2023-11-19T03:26:33;96779.59;;;0.70;89.96
4199;BME280;2113;50.946;14.610;2023-11-19T03:29:02;96760.47;;;0.71;89.45
4199;BME280;2113;50.946;14.610;2023-11-19T03:31:31;96766.34;;;0.73;89.23
4199;BME280;2113;50.946;14.610;2023-11-19T03:34:00;96777.94;;;0.69;88.75
4199;BME280;2113;50.946;14.610;2023-11-19T03:36:32;96776.06;;;0.71;88.78
4199;BME280;2113;50.946;14.610;2023-11-19T03:39:01;96773.88;;;0.66;88.95
4199;BME280;2113;50.946;14.610;2023-11-19T03:41:30;96768.13;;;0.63;89.54
4199;BME280;2113;50.946;14.610;2023-11-19T03:44:08;96769.53;;;0.57;89.39
4199;BME280;2113;50.946;14.610;2023-11-19T03:46:36;96756.44;;;0.49;89.36
4199;BME280;2113;50.946;14.610;2023-11-19T03:49:06;96753.72;;;0.50;89.50
4199;BME280;2113;50.946;14.610;2023-11-19T03:51:34;96758.09;;;0.50;90.22
4199;BME280;2113;50.946;14.610;2023-11-19T03:54:03;96752.19;;;0.58;90.41
4199;BME280;2113;50.946;14.610;2023-11-19T03:56:31;96748.78;;;0.57;90.54
4199;BME280;2113;50.946;14.610;2023-11-19T03:58:59;96758.88;;;0.60;89.93
4199;BME280;2113;50.946;14.610;2023-11-19T04:01:27;96752.84;;;0.60;90.51
4199;BME280;2113;50.946;14.610;2023-11-19T04:03:56;96761.03;;;0.65;90.32
4199;BME280;2113;50.946;14.610;2023-11-19T04:06:25;96768.28;;;0.61;89.81
4199;BME280;2113;50.946;14.610;2023-11-19T04:08:54;96759.69;;;0.61;90.08
4199;BME280;2113;50.946;14.610;2023-11-19T04:11:22;96751.63;;;0.64;90.94
4199;BME280;2113;50.946;14.610;2023-11-19T04:13:50;96752.97;;;0.68;89.88
4199;BME280;2113;50.946;14.610;2023-11-19T04:16:19;96735.75;;;0.67;89.53
4199;BME280;2113;50.946;14.610;2023-11-19T04:18:47;96743.84;;;0.64;89.49
4199;BME280;2113;50.946;14.610;2023-11-19T04:21:15;96721.00;;;0.67;90.40
4199;BME280;2113;50.946;14.610;2023-11-19T04:23:46;96720.19;;;0.67;90.47
4199;BME280;2113;50.946;14.610;2023-11-19T04:26:14;96709.97;;;0.65;89.75
4199;BME280;2113;50.946;14.610;2023-11-19T04:28:42;96701.34;;;0.65;90.29
4199;BME280;2113;50.946;14.610;2023-11-19T04:31:11;96704.22;;;0.62;89.98
4199;BME280;2113;50.946;14.610;2023-11-19T04:33:39;96692.75;;;0.64;90.07
4199;BME280;2113;50.946;14.610;2023-11-19T04:36:09;96696.28;;;0.63;90.09
4199;BME280;2113;50.946;14.610;2023-11-19T04:38:37;96683.03;;;0.66;90.87
4199;BME280;2113;50.946;14.610;2023-11-19T04:41:07;96674.72;;;0.63;90.54
4199;BME280;2113;50.946;14.610;2023-11-19T04:43:36;96671.41;;;0.70;91.33
4199;BME280;2113;50.946;14.610;2023-11-19T04:46:05;96673.88;;;0.72;90.23
4199;BME280;2113;50.946;14.610;2023-11-19T04:48:34;96670.88;;;0.67;90.40
4199;BME280;2113;50.946;14.610;2023-11-19T04:51:05;96666.75;;;0.74;90.58
4199;BME280;2113;50.946;14.610;2023-11-19T04:53:33;96667.41;;;0.76;90.43
4199;BME280;2113;50.946;14.610;2023-11-19T04:56:09;96658.00;;;0.75;91.16
4199;BME280;2113;50.946;14.610;2023-11-19T04:58:37;96650.50;;;0.72;91.22
4199;BME280;2113;50.946;14.610;2023-11-19T05:01:06;96641.09;;;0.71;91.44
4199;BME280;2113;50.946;14.610;2023-11-19T05:03:34;96639.81;;;0.75;91.48
4199;BME280;2113;50.946;14.610;2023-11-19T05:06:03;96636.41;;;0.74;90.89
4199;BME280;2113;50.946;14.610;2023-11-19T05:08:32;96635.91;;;0.71;91.23
4199;BME280;2113;50.946;14.610;2023-11-19T05:11:01;96621.97;;;0.72;91.44
4199;BME280;2113;50.946;14.610;2023-11-19T05:13:30;96624.16;;;0.67;91.17
4199;BME280;2113;50.946;14.610;2023-11-19T05:15:58;96618.75;;;0.60;91.90
4199;BME280;2113;50.946;14.610;2023-11-19T05:18:26;96617.53;;;0.54;92.05
4199;BME280;2113;50.946;14.610;2023-11-19T05:20:55;96607.56;;;0.60;91.54
4199;BME280;2113;50.946;14.610;2023-11-19T05:23:23;96611.94;;;0.59;91.88
4199;BME280;2113;50.946;14.610;2023-11-19T05:25:51;96612.75;;;0.60;91.86
4199;BME280;2113;50.946;14.610;2023-11-19T05:28:19;96620.75;;;0.66;91.39
4199;BME280;2113;50.946;14.610;2023-11-19T05:30:48;96620.22;;;0.63;91.75
4199;BME280;2113;50.946;14.610;2023-11-19T05:33:17;96609.00;;;0.72;91.58
4199;BME280;2113;50.946;14.610;2023-11-19T05:35:45;96608.03;;;0.73;92.24
4199;BME280;2113;50.946;14.610;2023-11-19T05:38:13;96605.94;;;0.76;91.98
4199;BME280;2113;50.946;14.610;2023-11-19T05:40:42;96599.28;;;0.74;91.52
4199;BME280;2113;50.946;14.610;2023-11-19T05:43:10;96592.97;;;0.76;91.70
4199;BME280;2113;50.946;14.610;2023-11-19T05:45:38;96589.69;;;0.74;92.12
4199;BME280;2113;50.946;14.610;2023-11-19T05:48:08;96580.91;;;0.85;91.43
4199;BME280;2113;50.946;14.610;2023-11-19T05:50:36;96581.34;;;0.80;91.49
4199;BME280;2113;50.946;14.610;2023-11-19T05:53:04;96563.66;;;0.84;91.75
4199;BME280;2113;50.946;14.610;2023-11-19T05:55:35;96578.44;;;0.83;92.20
4199;BME280;2113;50.946;14.610;2023-11-19T05:58:11;96571.22;;;0.77;92.46
4199;BME280;2113;50.946;14.610;2023-11-19T06:00:40;96566.03;;;0.77;92.37
4199;BME280;2113;50.946;14.610;2023-11-19T06:03:10;96571.69;;;0.73;92.17
4199;BME280;2113;50.946;14.610;2023-11-19T06:05:38;96576.94;;;0.81;91.57
4199;BME280;2113;50.946;14.610;2023-11-19T06:08:06;96574.22;;;0.82;92.08
4199;BME280;2113;50.946;14.610;2023-11-19T06:10:34;96565.97;;;0.87;91.41
4199;BME280;2113;50.946;14.610;2023-11-19T06:13:03;96570.50;;;0.85;91.09
4199;BME280;2113;50.946;14.610;2023-11-19T06:15:32;96554.94;;;0.85;91.30
4199;BME280;2113;50.946;14.610;2023-11-19T06:18:00;96553.50;;;0.91;90.77
4199;BME280;2113;50.946;14.610;2023-11-19T06:20:32;96555.81;;;0.94;91.15
4199;BME280;2113;50.946;14.610;2023-11-19T06:23:04;96549.28;;;0.90;90.62
4199;BME280;2113;50.946;14.610;2023-11-19T06:25:32;96542.84;;;0.94;90.85
4199;BME280;2113;50.946;14.610;2023-11-19T06:28:09;96532.47;;;0.94;91.04
4199;BME280;2113;50.946;14.610;2023-11-19T06:30:38;96532.00;;;0.98;91.29
4199;BME280;2113;50.946;14.610;2023-11-19T06:33:06;96533.28;;;0.94;91.32
4199;BME280;2113;50.946;14.610;2023-11-19T06:35:36;96523.53;;;0.96;91.47
4199;BME280;2113;50.946;14.610;2023-11-19T06:38:04;96528.66;;;0.88;90.48
4199;BME280;2113;50.946;14.610;2023-11-19T06:40:32;96527.03;;;0.87;90.74
4199;BME280;2113;50.946;14.610;2023-11-19T06:43:02;96535.22;;;0.92;91.49
4199;BME280;2113;50.946;14.610;2023-11-19T06:45:31;96543.34;;;0.97;90.76
4199;BME280;2113;50.946;14.610;2023-11-19T06:48:01;96540.09;;;0.95;91.52
4199;BME280;2113;50.946;14.610;2023-11-19T06:50:30;96552.31;;;1.03;91.13
4199;BME280;2113;50.946;14.610;2023-11-19T06:52:59;96550.59;;;1.12;91.26
4199;BME280;2113;50.946;14.610;2023-11-19T06:55:28;96539.88;;;1.06;90.66
4199;BME280;2113;50.946;14.610;2023-11-19T06:57:56;96546.84;;;1.06;90.49
4199;BME280;2113;50.946;14.610;2023-11-19T07:00:24;96511.59;;;1.03;90.38
4199;BME280;2113;50.946;14.610;2023-11-19T07:02:52;96501.19;;;1.03;90.74
4199;BME280;2113;50.946;14.610;2023-11-19T07:05:20;96488.59;;;1.08;90.61
4199;BME280;2113;50.946;14.610;2023-11-19T07:07:50;96478.69;;;1.12;91.22
4199;BME280;2113;50.946;14.610;2023-11-19T07:10:19;96466.91;;;1.18;90.52
4199;BME280;2113;50.946;14.610;2023-11-19T07:12:47;96456.72;;;1.24;90.08
4199;BME280;2113;50.946;14.610;2023-11-19T07:15:17;96459.84;;;1.28;90.74
4199;BME280;2113;50.946;14.610;2023-11-19T07:17:45;96469.28;;;1.37;90.95
4199;BME280;2113;50.946;14.610;2023-11-19T07:20:27;96468.84;;;1.42;90.23
4199;BME280;2113;50.946;14.610;2023-11-19T07:22:55;96493.03;;;1.42;90.54
4199;BME280;2113;50.946;14.610;2023-11-19T07:25:25;96494.50;;;1.45;91.20
4199;BME280;2113;50.946;14.610;2023-11-19T07:27:54;96492.88;;;1.44;89.92
4199;BME280;2113;50.946;14.610;2023-11-19T07:30:22;96507.28;;;1.38;91.33
4199;BME280;2113;50.946;14.610;2023-11-19T07:32:50;96491.41;;;1.41;91.11
4199;BME280;2113;50.946;14.610;2023-11-19T07:35:18;96499.22;;;1.41;90.93
4199;BME280;2113;50.946;14.610;2023-11-19T07:37:47;96508.63;;;1.42;91.37
4199;BME280;2113;50.946;14.610;2023-11-19T07:40:17;96507.44;;;1.36;91.12
4199;BME280;2113;50.946;14.610;2023-11-19T07:42:47;96507.75;;;1.33;90.61
4199;BME280;2113;50.946;14.610;2023-11-19T07:45:15;96504.13;;;1.26;90.96
4199;BME280;2113;50.946;14.610;2023-11-19T07:47:44;96502.34;;;1.27;91.72
4199;BME280;2113;50.946;14.610;2023-11-19T07:50:12;96503.63;;;1.23;91.36
4199;BME280;2113;50.946;14.610;2023-11-19T07:52:43;96492.72;;;1.19;91.19
4199;BME280;2113;50.946;14.610;2023-11-19T07:55:11;96485.06;;;1.18;91.89
4199;BME280;2113;50.946;14.610;2023-11-19T07:57:40;96507.19;;;1.22;91.78
4199;BME280;2113;50.946;14.610;2023-11-19T08:00:11;96521.00;;;1.22;92.11
4199;BME280;2113;50.946;14.610;2023-11-19T08:02:40;96520.47;;;1.19;92.68
4199;BME280;2113;50.946;14.610;2023-11-19T08:05:08;96516.72;;;1.13;91.60
4199;BME280;2113;50.946;14.610;2023-11-19T08:07:37;96508.75;;;1.15;92.39
4199;BME280;2113;50.946;14.610;2023-11-19T08:10:07;96511.69;;;1.20;92.49
4199;BME280;2113;50.946;14.610;2023-11-19T08:12:38;96514.31;;;1.20;91.93
4199;BME280;2113;50.946;14.610;2023-11-19T08:15:06;96504.88;;;1.19;91.54
4199;BME280;2113;50.946;14.610;2023-11-19T08:17:36;96502.97;;;1.21;91.05
4199;BME280;2113;50.946;14.610;2023-11-19T08:20:06;96497.13;;;1.27;90.32
4199;BME280;2113;50.946;14.610;2023-11-19T08:22:37;96498.78;;;1.28;91.22
4199;BME280;2113;50.946;14.610;2023-11-19T08:25:06;96500.91;;;1.32;90.74
4199;BME280;2113;50.946;14.610;2023-11-19T08:27:34;96495.94;;;1.39;90.59
4199;BME280;2113;50.946;14.610;2023-11-19T08:30:03;96498.38;;;1.41;90.38
4199;BME280;2113;50.946;14.610;2023-11-19T08:32:33;96483.19;;;1.54;91.30
4199;BME280;2113;50.946;14.610;2023-11-19T08:35:04;96489.19;;;1.54;90.44
4199;BME280;2113;50.946;14.610;2023-11-19T08:37:32;96495.41;;;1.61;91.30
4199;BME280;2113;50.946;14.610;2023-11-19T08:40:01;96493.47;;;1.63;90.71
4199;BME280;2113;50.946;14.610;2023-11-19T08:42:29;96486.81;;;1.69;91.10
4199;BME280;2113;50.946;14.610;2023-11-19T08:44:58;96485.81;;;1.62;91.10
4199;BME280;2113;50.946;14.610;2023-11-19T08:47:26;96490.19;;;1.61;91.42
4199;BME280;2113;50.946;14.610;2023-11-19T08:49:54;96493.59;;;1.62;91.81
4199;BME280;2113;50.946;14.610;2023-11-19T08:52:27;96490.56;;;1.67;92.01
4199;BME280;2113;50.946;14.610;2023-11-19T08:54:58;96490.28;;;1.78;91.66
4199;BME280;2113;50.946;14.610;2023-11-19T08:57:26;96491.78;;;1.88;92.03
4199;BME280;2113;50.946;14.610;2023-11-19T08:59:54;96486.47;;;1.98;92.45
4199;BME280;2113;50.946;14.610;2023-11-19T09:02:22;96486.81;;;2.11;92.12
4199;BME280;2113;50.946;14.610;2023-11-19T09:04:51;96485.81;;;2.04;91.84
4199;BME280;2113;50.946;14.610;2023-11-19T09:07:20;96491.41;;;2.17;92.40
4199;BME280;2113;50.946;14.610;2023-11-19T09:09:50;96487.72;;;2.28;92.41
4199;BME280;2113;50.946;14.610;2023-11-19T09:12:18;96473.09;;;2.52;92.15
4199;BME280;2113;50.946;14.610;2023-11-19T09:14:46;96472.31;;;2.67;91.38
4199;BME280;2113;50.946;14.610;2023-11-19T09:17:16;96470.38;;;2.78;91.78
4199;BME280;2113;50.946;14.610;2023-11-19T09:19:44;96454.25;;;2.98;90.89
4199;BME280;2113;50.946;14.610;2023-11-19T09:22:13;96453.91;;;3.01;90.40
4199;BME280;2113;50.946;14.610;2023-11-19T09:24:41;96456.03;;;2.98;90.85
4199;BME280;2113;50.946;14.610;2023-11-19T09:27:12;96464.34;;;2.93;91.00
4199;BME280;2113;50.946;14.610;2023-11-19T09:29:40;96472.97;;;2.86;90.40
4199;BME280;2113;50.946;14.610;2023-11-19T09:32:10;96478.69;;;2.97;90.40
4199;BME280;2113;50.946;14.610;2023-11-19T09:34:38;96474.28;;;2.98;90.25
4199;BME280;2113;50.946;14.610;2023-11-19T09:37:06;96468.06;;;3.07;90.60
4199;BME280;2113;50.946;14.610;2023-11-19T09:39:48;96469.38;;;3.11;90.27
4199;BME280;2113;50.946;14.610;2023-11-19T09:42:17;96466.78;;;3.19;90.09
4199;BME280;2113;50.946;14.610;2023-11-19T09:44:47;96468.72;;;3.17;89.75
4199;BME280;2113;50.946;14.610;2023-11-19T09:47:17;96464.19;;;3.11;89.84
4199;BME280;2113;50.946;14.610;2023-11-19T09:49:48;96457.00;;;3.05;89.77
4199;BME280;2113;50.946;14.610;2023-11-19T09:52:17;96469.22;;;3.05;90.28
4199;BME280;2113;50.946;14.610;2023-11-19T09:54:45;96461.56;;;3.11;90.71
4199;BME280;2113;50.946;14.610;2023-11-19T09:57:15;96456.66;;;3.16;91.16
4199;BME280;2113;50.946;14.610;2023-11-19T09:59:46;96447.88;;;3.17;90.77
4199;BME280;2113;50.946;14.610;2023-11-19T10:02:16;96456.66;;;3.16;90.92
4199;BME280;2113;50.946;14.610;2023-11-19T10:04:46;96468.88;;;3.16;91.37
4199;BME280;2113;50.946;14.610;2023-11-19T10:07:16;96456.66;;;3.16;91.85
4199;BME280;2113;50.946;14.610;2023-11-19T10:09:44;96457.47;;;3.25;91.65
4199;BME280;2113;50.946;14.610;2023-11-19T10:12:14;96448.66;;;3.34;91.30
4199;BME280;2113;50.946;14.610;2023-11-19T10:14:45;96446.22;;;3.33;91.86
4199;BME280;2113;50.946;14.610;2023-11-19T10:17:14;96463.13;;;3.37;92.07
4199;BME280;2113;50.946;14.610;2023-11-19T10:19:42;96461.88;;;3.33;92.47
4199;BME280;2113;50.946;14.610;2023-11-19T10:22:10;96444.25;;;3.43;92.50
4199;BME280;2113;50.946;14.610;2023-11-19T10:24:41;96433.47;;;3.54;92.49
4199;BME280;2113;50.946;14.610;2023-11-19T10:27:15;96417.47;;;3.57;92.73
4199;BME280;2113;50.946;14.610;2023-11-19T10:29:46;96423.25;;;3.83;92.94
4199;BME280;2113;50.946;14.610;2023-11-19T10:32:14;96420.06;;;4.50;92.38
4199;BME280;2113;50.946;14.610;2023-11-19T10:35:04;96414.22;;;5.09;90.18
4199;BME280;2113;50.946;14.610;2023-11-19T10:37:33;96404.75;;;5.08;88.64
4199;BME280;2113;50.946;14.610;2023-11-19T10:40:05;96407.59;;;4.98;88.70
4199;BME280;2113;50.946;14.610;2023-11-19T10:42:37;96397.88;;;4.69;88.78
4199;BME280;2113;50.946;14.610;2023-11-19T10:45:21;96403.13;;;4.69;90.01
4199;BME280;2113;50.946;14.610;2023-11-19T10:47:51;96396.94;;;4.85;89.83
4199;BME280;2113;50.946;14.610;2023-11-19T10:50:20;96401.56;;;4.97;90.07
4199;BME280;2113;50.946;14.610;2023-11-19T10:52:52;96406.44;;;5.01;89.54
4199;BME280;2113;50.946;14.610;2023-11-19T10:55:27;96404.00;;;5.14;89.75
4199;BME280;2113;50.946;14.610;2023-11-19T10:57:59;96407.00;;;5.11;89.29
4199;BME280;2113;50.946;14.610;2023-11-19T11:00:33;96402.47;;;5.05;89.13
4199;BME280;2113;50.946;14.610;2023-11-19T11:03:08;96395.78;;;4.87;90.03
4199;BME280;2113;50.946;14.610;2023-11-19T11:05:38;96404.84;;;5.29;89.64
4199;BME280;2113;50.946;14.610;2023-11-19T11:08:07;96410.34;;;5.49;88.99
4199;BME280;2113;50.946;14.610;2023-11-19T11:10:39;96411.25;;;5.41;88.31
4199;BME280;2113;50.946;14.610;2023-11-19T11:13:14;96402.88;;;5.31;88.34
4199;BME280;2113;50.946;14.610;2023-11-19T11:15:44;96401.59;;;5.42;88.55
4199;BME280;2113;50.946;14.610;2023-11-19T11:18:13;96392.78;;;5.58;88.41
4199;BME280;2113;50.946;14.610;2023-11-19T11:20:44;96396.03;;;5.45;88.71
4199;BME280;2113;50.946;14.610;2023-11-19T11:23:33;96399.63;;;5.29;88.68
4199;BME280;2113;50.946;14.610;2023-11-19T11:26:28;96385.56;;;5.30;89.20
4199;BME280;2113;50.946;14.610;2023-11-19T11:29:03;96386.28;;;5.24;88.76
4199;BME280;2113;50.946;14.610;2023-11-19T11:31:39;96372.50;;;5.30;88.42
4199;BME280;2113;50.946;14.610;2023-11-19T11:34:38;96377.44;;;5.25;89.17
4199;BME280;2113;50.946;14.610;2023-11-19T11:37:15;96387.88;;;5.10;89.05
4199;BME280;2113;50.946;14.610;2023-11-19T11:39:46;96381.75;;;5.47;89.01
4199;BME280;2113;50.946;14.610;2023-11-19T11:42:34;96385.75;;;5.43;88.47
4199;BME280;2113;50.946;14.610;2023-11-19T11:45:05;96390.06;;;5.21;88.56
4199;BME280;2113;50.946;14.610;2023-11-19T11:48:11;96382.19;;;5.07;89.86
4199;BME280;2113;50.946;14.610;2023-11-19T11:50:51;96385.38;;;5.17;90.14
4199;BME280;2113;50.946;14.610;2023-11-19T11:53:21;96372.75;;;5.35;89.84
4199;BME280;2113;50.946;14.610;2023-11-19T11:55:56;96375.25;;;5.73;89.61
4199;BME280;2113;50.946;14.610;2023-11-19T11:58:30;96384.78;;;5.95;87.60
4199;BME280;2113;50.946;14.610;2023-11-19T12:01:01;96388.25;;;6.17;87.26
4199;BME280;2113;50.946;14.610;2023-11-19T12:03:34;96378.66;;;6.24;86.79
4199;BME280;2113;50.946;14.610;2023-11-19T12:06:03;96373.47;;;6.74;84.47
4199;BME280;2113;50.946;14.610;2023-11-19T12:08:34;96379.28;;;6.69;84.84
4199;BME280;2113;50.946;14.610;2023-11-19T12:11:19;96368.69;;;7.40;82.74
4199;BME280;2113;50.946;14.610;2023-11-19T12:13:55;96360.59;;;7.35;82.64
4199;BME280;2113;50.946;14.610;2023-11-19T12:16:25;96363.81;;;7.37;81.81
4199;BME280;2113;50.946;14.610;2023-11-19T12:19:02;96355.81;;;7.99;80.72
4199;BME280;2113;50.946;14.610;2023-11-19T12:21:32;96358.94;;;7.27;82.49
4199;BME280;2113;50.946;14.610;2023-11-19T12:24:06;96350.38;;;7.19;81.59
4199;BME280;2113;50.946;14.610;2023-11-19T12:26:37;96347.25;;;7.30;80.98
4199;BME280;2113;50.946;14.610;2023-11-19T12:29:06;96353.75;;;6.78;82.99
4199;BME280;2113;50.946;14.610;2023-11-19T12:31:36;96355.72;;;6.26;85.27
4199;BME280;2113;50.946;14.610;2023-11-19T12:34:09;96345.56;;;6.38;86.05
4199;BME280;2113;50.946;14.610;2023-11-19T12:36:41;96355.81;;;6.61;85.65
4199;BME280;2113;50.946;14.610;2023-11-19T12:39:10;96353.94;;;7.80;82.39
4199;BME280;2113;50.946;14.610;2023-11-19T12:41:52;96346.00;;;8.35;80.18
4199;BME280;2113;50.946;14.610;2023-11-19T12:44:22;96345.66;;;8.91;77.16
4199;BME280;2113;50.946;14.610;2023-11-19T12:47:02;96349.69;;;8.87;77.53
4199;BME280;2113;50.946;14.610;2023-11-19T12:49:33;96345.66;;;8.97;77.72
4199;BME280;2113;50.946;14.610;2023-11-19T12:52:02;96340.59;;;8.83;77.39
4199;BME280;2113;50.946;14.610;2023-11-19T12:54:34;96346.19;;;8.20;78.91
4199;BME280;2113;50.946;14.610;2023-11-19T12:57:04;96343.16;;;8.30;79.56
4199;BME280;2113;50.946;14.610;2023-11-19T12:59:33;96335.28;;;7.55;80.75
4199;BME280;2113;50.946;14.610;2023-11-19T13:02:01;96332.13;;;7.80;80.68
4199;BME280;2113;50.946;14.610;2023-11-19T13:04:34;96339.66;;;7.41;81.35
4199;BME280;2113;50.946;14.610;2023-11-19T13:07:02;96335.88;;;7.57;80.91
4199;BME280;2113;50.946;14.610;2023-11-19T13:09:32;96343.53;;;7.18;82.74
4199;BME280;2113;50.946;14.610;2023-11-19T13:12:12;96340.31;;;7.15;83.40
4199;BME280;2113;50.946;14.610;2023-11-19T13:14:41;96339.56;;;7.28;81.94
4199;BME280;2113;50.946;14.610;2023-11-19T13:17:14;96328.50;;;7.39;81.57
4199;BME280;2113;50.946;14.610;2023-11-19T13:19:47;96325.28;;;7.85;81.54
4199;BME280;2113;50.946;14.610;2023-11-19T13:22:15;96323.41;;;8.47;79.12
4199;BME280;2113;50.946;14.610;2023-11-19T13:24:43;96324.59;;;8.38;78.42
4199;BME280;2113;50.946;14.610;2023-11-19T13:27:13;96309.19;;;8.21;79.17
4199;BME280;2113;50.946;14.610;2023-11-19T13:29:41;96321.00;;;8.39;77.91
4199;BME280;2113;50.946;14.610;2023-11-19T13:32:09;96318.06;;;8.07;79.60
4199;BME280;2113;50.946;14.610;2023-11-19T13:34:37;96311.16;;;7.86;80.14
4199;BME280;2113;50.946;14.610;2023-11-19T13:37:07;96310.59;;;8.04;80.64
4199;BME280;2113;50.946;14.610;2023-11-19T13:39:36;96336.22;;;8.02;80.29
4199;BME280;2113;50.946;14.610;2023-11-19T13:42:04;96326.63;;;7.61;82.51
4199;BME280;2113;50.946;14.610;2023-11-19T13:44:35;96339.88;;;7.53;83.52